Maple Falls, WA

1:15 AM PST on December 27, 2014 (GMT -0800)
Peaceful Valley | Change Station
CLOSE
Current Station
Personal Weather Station
Location: Maple Falls, WA
Elevation: 470 ft
Nearby Weather Stations
Active Advisory: Winter Storm Warning

Elev 470 ft 48.94 °N, 122.14 °W | Updated 13 seconds ago

Overcast
Overcast
37.2 °F
Feels Like 37 °F
N
0.0
Wind Variable Wind from SE
Gusts 0.0 mph

Today
High -- | Low -- °F
--% Chance of Precip.
Yesterday
High -- | Low -- °F
Precip. -- in
8:01 AM 4:17 PM
Waxing Crescent, 34% visible
Pressure 30.30 in
Visibility 3.0 miles
Clouds Few 100 ft
Mostly Cloudy 5500 ft
Overcast 7000 ft
Windchill 37 °F
Dew Point 35 °F
Humidity 93%
Rainfall 0.00 in
Snow Depth Not available.
UV 0 out of 12
Pollen .50 out of 12
Air Quality Not available.
Flu Activity Not available.
METAR KBLI 270853Z AUTO 00000KT 3SM BR FEW001 BKN055 OVC070 03/02 A3028 RMK AO2 SLP261 T00280017 56015

More Conditions Fewer Conditions

Pressure 30.30 in
Visibility 3.0 miles
Clouds Few 100 ft
Mostly Cloudy 5500 ft
Overcast 7000 ft
Windchill 37 °F
Dew Point 35 °F
Humidity 93%
Rainfall 0.00 in
Snow Depth Not available.
UV 0 out of 12
Pollen .50 out of 12
Air Quality Not available.
Flu Activity Not available.
METAR KBLI 270853Z AUTO 00000KT 3SM BR FEW001 BKN055 OVC070 03/02 A3028 RMK AO2 SLP261 T00280017 56015

More Conditions Fewer Conditions

10-Day Weather Forecast

Almanac

Astronomy

Dec. 27, 2014 Rise Set
Actual Time
Civil Twilight
Nautical Twilight
Astronomical Twilight
Moon
Length of Visible Light
Length of Day
Tomorrow will be .
, % of the Moon is Illuminated

Today's Extremes

State Highs State Lows

Community

WunderPhotos

Upload Photos

1,780,869 photos uploaded!

WunderBlogs® & News

Nearby

Air Quality

  Air Quality AQ Index Pollutant
Not available.

Snow Depth

Station Depth Elevation

Earthquake Activity

City Distance Mag. Time & Date
Minimum magnitude displayed is 2.5.

Coastal Water Temperatures

Place Temperature

Nearby Weather Stations